Big Bear Station Historical Data
Daily Summary for November 16, 2017 Units:  English    Metric   Both
« Previous Day
Next Day »
Daily Weekly Monthly Yearly Custom
  High: Low: Average:
Temperature: 57.6 °F 42.1 °F 49.7 °F
Dew Point: 38.9 °F 33.7 °F 36.4 °F
Humidity: 76 % 46 % 61 %
Wind Speed: 11.4 mph 0.0 mph 2 mph
Wind Gust: -999.0 mph - -
Wind:- - WSW
Pressure: 30.21 in 30.15 in -
Precipitation: 0.00 in    
Historical Graphs
 
 
Tabular Data for November 16, 2017
Time Temperature Dew Point Pressure Wind Wind Speed Wind Gust Humidity Rainfall Rate (Hourly)
00:08 42.1 °F 33.7 °F 30.20 in Calm   -999.0 mph 72 % 0 in
00:23 42.4 °F 34.0 °F 30.19 in Calm   -999.0 mph 72 % 0 in
00:39 42.6 °F 33.9 °F 30.18 in Calm   -999.0 mph 71 % 0 in
00:54 43.3 °F 34.5 °F 30.19 in SSW 2.2 mph -999.0 mph 71 % 0 in
01:10 44.6 °F 34.7 °F 30.19 in Calm   -999.0 mph 68 % 0 in
01:40 45.5 °F 35.6 °F 30.18 in WNW 1.1 mph -999.0 mph 68 % 0 in
01:55 46.4 °F 36.4 °F 30.18 in NNW 5.8 mph -999.0 mph 68 % 0 in
02:10 46.0 °F 35.7 °F 30.19 in Calm   -999.0 mph 67 % 0 in
02:26 45.3 °F 35.4 °F 30.18 in Calm   -999.0 mph 68 % 0 in
02:41 45.3 °F 36.1 °F 30.18 in Calm   -999.0 mph 70 % 0 in
02:56 45.3 °F 36.5 °F 30.18 in Calm   -999.0 mph 71 % 0 in
03:11 44.8 °F 37.0 °F 30.18 in Calm   -999.0 mph 74 % 0 in
03:26 45.0 °F 37.2 °F 30.17 in Calm   -999.0 mph 74 % 0 in
03:42 45.0 °F 37.2 °F 30.17 in Calm   -999.0 mph 74 % 0 in
03:57 44.8 °F 37.4 °F 30.17 in Calm   -999.0 mph 75 % 0 in
04:12 45.0 °F 37.9 °F 30.17 in Calm   -999.0 mph 76 % 0 in
04:27 45.3 °F 38.2 °F 30.17 in NW 2.7 mph -999.0 mph 76 % 0 in
04:42 45.5 °F 38.0 °F 30.16 in NW 3.7 mph -999.0 mph 75 % 0 in
04:58 46.0 °F 38.5 °F 30.16 in NW 2.7 mph -999.0 mph 75 % 0 in
05:13 45.9 °F 38.4 °F 30.16 in Calm   -999.0 mph 75 % 0 in
05:28 45.7 °F 38.2 °F 30.17 in Calm   -999.0 mph 75 % 0 in
05:43 45.5 °F 35.9 °F 30.17 in NW 2.2 mph -999.0 mph 69 % 0 in
05:59 47.1 °F 34.3 °F 30.18 in SSW 2.2 mph -999.0 mph 61 % 0 in
06:14 48.6 °F 34.9 °F 30.18 in NW 4.2 mph -999.0 mph 59 % 0 in
06:29 48.7 °F 35.4 °F 30.18 in East 2.2 mph -999.0 mph 60 % 0 in
06:44 48.9 °F 35.6 °F 30.18 in SW 2.2 mph -999.0 mph 60 % 0 in
06:59 49.1 °F 35.8 °F 30.18 in Calm   -999.0 mph 60 % 0 in
07:15 49.6 °F 35.4 °F 30.19 in West 2.2 mph -999.0 mph 58 % 0 in
07:30 50.2 °F 36.0 °F 30.19 in West 1.7 mph -999.0 mph 58 % 0 in
07:45 50.9 °F 35.8 °F 30.20 in West 4.2 mph -999.0 mph 56 % 0 in
08:01 51.8 °F 35.7 °F 30.20 in SE 2.2 mph -999.0 mph 54 % 0 in
08:16 52.9 °F 36.7 °F 30.20 in NW 3.2 mph -999.0 mph 54 % 0 in
08:32 53.1 °F 36.9 °F 30.20 in North 5.3 mph -999.0 mph 54 % 0 in
08:47 54.1 °F 36.9 °F 30.20 in WNW 8.3 mph -999.0 mph 52 % 0 in
09:03 54.5 °F 37.7 °F 30.20 in West 1.7 mph -999.0 mph 53 % 0 in
09:18 54.3 °F 38.9 °F 30.21 in West 1.1 mph -999.0 mph 56 % 0 in
09:33 54.0 °F 38.2 °F 30.21 in NW 2.7 mph -999.0 mph 55 % 0 in
09:48 54.5 °F 37.7 °F 30.21 in NW 2.7 mph -999.0 mph 53 % 0 in
10:03 55.6 °F 37.8 °F 30.21 in WNW 1.1 mph -999.0 mph 51 % 0 in
10:19 56.1 °F 36.7 °F 30.21 in WNW 3.2 mph -999.0 mph 48 % 0 in
10:34 55.9 °F 36.5 °F 30.20 in WNW 11.4 mph -999.0 mph 48 % 0 in
10:50 57.2 °F 37.1 °F 30.20 in West 3.7 mph -999.0 mph 47 % 0 in
11:05 56.7 °F 36.7 °F 30.19 in WSW 3.7 mph -999.0 mph 47 % 0 in
11:20 57.0 °F 36.4 °F 30.19 in ESE 4.2 mph -999.0 mph 46 % 0 in
11:36 57.6 °F 37.0 °F 30.19 in Calm   -999.0 mph 46 % 0 in
11:51 56.7 °F 37.2 °F 30.19 in NW 4.2 mph -999.0 mph 48 % 0 in
12:06 55.2 °F 36.9 °F 30.18 in SSW 4.7 mph -999.0 mph 50 % 0 in
12:21 56.3 °F 36.9 °F 30.17 in SSE 5.8 mph -999.0 mph 48 % 0 in
12:37 55.2 °F 36.9 °F 30.17 in SSE 6.8 mph -999.0 mph 50 % 0 in
12:52 54.9 °F 36.6 °F 30.17 in SE 2.7 mph -999.0 mph 50 % 0 in
13:07 54.9 °F 37.1 °F 30.17 in Calm   -999.0 mph 51 % 0 in
13:23 56.3 °F 37.4 °F 30.17 in SW 5.3 mph -999.0 mph 49 % 0 in
13:38 54.9 °F 36.6 °F 30.17 in WNW 5.8 mph -999.0 mph 50 % 0 in
13:53 55.6 °F 37.2 °F 30.16 in West 2.7 mph -999.0 mph 50 % 0 in
14:09 55.6 °F 37.2 °F 30.16 in SSE 6.8 mph -999.0 mph 50 % 0 in
14:24 55.2 °F 36.4 °F 30.16 in South 5.3 mph -999.0 mph 49 % 0 in
14:39 54.9 °F 36.6 °F 30.16 in North 2.7 mph -999.0 mph 50 % 0 in
14:55 55.0 °F 37.2 °F 30.16 in Calm   -999.0 mph 51 % 0 in
15:11 54.1 °F 36.4 °F 30.15 in Calm   -999.0 mph 51 % 0 in
15:26 53.6 °F 35.4 °F 30.16 in SW 2.7 mph -999.0 mph 50 % 0 in
15:41 52.9 °F 35.3 °F 30.16 in South 4.7 mph -999.0 mph 51 % 0 in
15:56 52.3 °F 35.7 °F 30.16 in ESE 1.1 mph -999.0 mph 53 % 0 in
16:11 51.4 °F 35.8 °F 30.16 in NNW 2.2 mph -999.0 mph 55 % 0 in
16:27 50.5 °F 35.8 °F 30.16 in Calm   -999.0 mph 57 % 0 in
16:42 50.0 °F 35.8 °F 30.16 in Calm   -999.0 mph 58 % 0 in
16:57 49.3 °F 36.0 °F 30.16 in Calm   -999.0 mph 60 % 0 in
17:12 48.9 °F 36.5 °F 30.16 in Calm   -999.0 mph 62 % 0 in
17:27 48.6 °F 36.2 °F 30.16 in Calm   -999.0 mph 62 % 0 in
17:43 48.2 °F 36.2 °F 30.16 in Calm   -999.0 mph 63 % 0 in
17:58 48.6 °F 35.8 °F 30.17 in Calm   -999.0 mph 61 % 0 in
18:13 48.4 °F 36.0 °F 30.17 in Calm   -999.0 mph 62 % 0 in
18:28 48.2 °F 36.6 °F 30.17 in SSE 2.2 mph -999.0 mph 64 % 0 in
18:44 48.2 °F 37.0 °F 30.17 in Calm   -999.0 mph 65 % 0 in
18:59 47.8 °F 37.0 °F 30.17 in Calm   -999.0 mph 66 % 0 in
19:29 47.7 °F 37.3 °F 30.17 in Calm   -999.0 mph 67 % 0 in
19:44 47.5 °F 36.7 °F 30.17 in Calm   -999.0 mph 66 % 0 in
20:00 47.7 °F 35.3 °F 30.17 in Calm   -999.0 mph 62 % 0 in
20:15 47.5 °F 35.9 °F 30.17 in North 2.2 mph -999.0 mph 64 % 0 in
20:30 47.7 °F 36.1 °F 30.18 in SSE 1.1 mph -999.0 mph 64 % 0 in
20:46 47.8 °F 35.0 °F 30.18 in WNW 2.2 mph -999.0 mph 61 % 0 in
21:01 47.8 °F 33.7 °F 30.18 in Calm   -999.0 mph 58 % 0 in
21:16 47.8 °F 35.0 °F 30.18 in NW 3.7 mph -999.0 mph 61 % 0 in
21:32 47.5 °F 35.9 °F 30.19 in West 3.2 mph -999.0 mph 64 % 0 in
21:47 47.1 °F 36.3 °F 30.18 in NW 3.2 mph -999.0 mph 66 % 0 in
22:02 46.9 °F 36.5 °F 30.18 in NNW 1.7 mph -999.0 mph 67 % 0 in
22:17 46.8 °F 36.8 °F 30.18 in Calm   -999.0 mph 68 % 0 in
22:33 46.6 °F 37.0 °F 30.17 in Calm   -999.0 mph 69 % 0 in
22:48 46.6 °F 37.0 °F 30.17 in Calm   -999.0 mph 69 % 0 in
23:03 46.6 °F 37.0 °F 30.17 in Calm   -999.0 mph 69 % 0 in
23:18 46.6 °F 37.0 °F 30.17 in ESE 2.2 mph -999.0 mph 69 % 0 in
23:34 46.6 °F 37.0 °F 30.17 in SW 1.7 mph -999.0 mph 69 % 0 in
23:49 46.4 °F 36.8 °F 30.17 in Calm   -999.0 mph 69 % 0 in
Big Bear CA Weather
Compliments of Weather Underground - 1.5 mb